Ministro Andreazza, Brazil
Current Conditions -  °F | °C
As of 6:15 AM on Monday 26 Jan 2015 (Local Time) from SBVH Reporting Station
Haze Haze  
Wind Chill: 70°   Ceiling: 800
Heat Index: 70°   Visibility: 3mi
Dew Point: 70°   Wind: 10mph
Humidity: 100%   Direction: 350°N
Pressure: 29.94"   Gusts: NA
Location:  11.07°S, 61.52°W
Report Text: SBVH 261015Z 35009KT 5000 BR SCT004 BKN008 21/21 Q1014
Loading
Personal Weather Stations






























Interactive Weather Map New forecast layout! Learn more

10-Day Weather Forecast

Advertisements
Track Severe Weather on mobile